84.3°F
Current conditions from King Hill
Updated every 5 minutes
 
  Tuesday September 2, 2014

Station Historical Data
Daily Summary for April 29, 2012 Units:  Both    English   Metric
« Previous Day
Next Day »
Daily Weekly Monthly Yearly Custom
  High: Low: Average:
Temperature: 47.2 °F /  8.4 °C 29.5 °F /  -1.4 °C 38.5 °F /  3.6 °C
Dew Point: 21.6 °F /  -5.8 °C 12.3 °F /  -10.9 °C 16.7 °F /  -8.5 °C
Humidity: 69% 26% 43%
Wind Speed: 12.0mph /  19.3km/h - 5.8mph /  9.3km/h
Wind Gust: 25.0mph /  40.2km/h - -
Wind- - NW
Pressure: 30.24 in /  1023.9 hPa 30.07 in /  1018.2 hPa -
Precipitation: 0.00 in /  0 mm    
Historical Graphs
 
 
Tabular Data for April 29, 2012
Time Temperature Dew Point Pressure Wind Wind Speed Wind Gust Humidity Daily Rainfall
00:04 34.4 °F /  1.3 °C 16.2 °F /  -8.8 °C 30.09in /  1018.8hPa WSW 1.0mph /  1.6km/h 6.0mph /  9.7km/h 47% 0.00in /  0mm
00:10 34.4 °F /  1.3 °C 16.7 °F /  -8.5 °C 30.09in /  1018.8hPa Calm   6.0mph /  9.7km/h 48% 0.00in /  0mm
00:14 34.2 °F /  1.2 °C 16.5 °F /  -8.6 °C 30.09in /  1018.8hPa Calm   6.0mph /  9.7km/h 48% 0.00in /  0mm
00:19 33.9 °F /  1.1 °C 16.3 °F /  -8.7 °C 30.09in /  1018.8hPa Calm   2.0mph /  3.2km/h 48% 0.00in /  0mm
00:24 33.9 °F /  1.1 °C 16.3 °F /  -8.7 °C 30.09in /  1018.8hPa WSW 1.0mph /  1.6km/h 5.0mph /  8km/h 48% 0.00in /  0mm
00:29 33.8 °F /  1 °C 16.2 °F /  -8.8 °C 30.10in /  1019.2hPa Calm   5.0mph /  8km/h 48% 0.00in /  0mm
00:34 33.9 °F /  1.1 °C 16.7 °F /  -8.5 °C 30.09in /  1018.8hPa Calm   8.0mph /  12.9km/h 49% 0.00in /  0mm
00:39 33.8 °F /  1 °C 16.7 °F /  -8.5 °C 30.09in /  1018.8hPa Calm   8.0mph /  12.9km/h 49% 0.00in /  0mm
00:44 33.6 °F /  0.9 °C 16.5 °F /  -8.6 °C 30.09in /  1018.8hPa Calm   3.0mph /  4.8km/h 49% 0.00in /  0mm
00:49 33.5 °F /  0.8 °C 16.4 °F /  -8.7 °C 30.09in /  1018.8hPa Calm   2.0mph /  3.2km/h 49% 0.00in /  0mm
00:54 33.4 °F /  0.8 °C 16.3 °F /  -8.7 °C 30.09in /  1018.8hPa West 1.0mph /  1.6km/h 4.0mph /  6.4km/h 49% 0.00in /  0mm
00:59 33.2 °F /  0.7 °C 17.0 °F /  -8.3 °C 30.09in /  1018.8hPa Calm   4.0mph /  6.4km/h 51% 0.00in /  0mm
01:04 32.9 °F /  0.5 °C 16.7 °F /  -8.5 °C 30.09in /  1018.8hPa Calm   2.0mph /  3.2km/h 51% 0.00in /  0mm
01:09 32.7 °F /  0.4 °C 16.6 °F /  -8.6 °C 30.09in /  1018.8hPa Calm   2.0mph /  3.2km/h 51% 0.00in /  0mm
01:14 32.6 °F /  0.3 °C 16.5 °F /  -8.6 °C 30.09in /  1018.8hPa Calm   1.0mph /  1.6km/h 51% 0.00in /  0mm
01:19 32.6 °F /  0.3 °C 16.9 °F /  -8.4 °C 30.09in /  1018.8hPa Calm   1.0mph /  1.6km/h 52% 0.00in /  0mm
01:24 32.6 °F /  0.3 °C 16.9 °F /  -8.4 °C 30.09in /  1018.8hPa Calm     52% 0.00in /  0mm
01:29 32.6 °F /  0.3 °C 17.4 °F /  -8.1 °C 30.09in /  1018.8hPa Calm     53% 0.00in /  0mm
01:34 32.5 °F /  0.3 °C 17.3 °F /  -8.2 °C 30.09in /  1018.8hPa Calm     53% 0.00in /  0mm
01:39 32.3 °F /  0.2 °C 17.5 °F /  -8.1 °C 30.09in /  1018.8hPa Calm   3.0mph /  4.8km/h 54% 0.00in /  0mm
01:44 32.2 °F /  0.1 °C 17.8 °F /  -7.9 °C 30.09in /  1018.8hPa Calm   3.0mph /  4.8km/h 55% 0.00in /  0mm
01:49 32.1 °F /  0.1 °C 17.7 °F /  -7.9 °C 30.09in /  1018.8hPa Calm   1.0mph /  1.6km/h 55% 0.00in /  0mm
01:54 32.0 °F /  0 °C 17.7 °F /  -7.9 °C 30.09in /  1018.8hPa Calm     55% 0.00in /  0mm
01:59 32.0 °F /  0 °C 18.1 °F /  -7.7 °C 30.09in /  1018.8hPa Calm   1.0mph /  1.6km/h 56% 0.00in /  0mm
02:04 31.9 °F /  -0.1 °C 18.0 °F /  -7.8 °C 30.08in /  1018.5hPa Calm   4.0mph /  6.4km/h 56% 0.00in /  0mm
02:09 31.8 °F /  -0.1 °C 18.3 °F /  -7.6 °C 30.08in /  1018.5hPa Calm   4.0mph /  6.4km/h 57% 0.00in /  0mm
02:14 31.6 °F /  -0.2 °C 18.1 °F /  -7.7 °C 30.08in /  1018.5hPa Calm   1.0mph /  1.6km/h 57% 0.00in /  0mm
02:19 31.5 °F /  -0.3 °C 18.4 °F /  -7.6 °C 30.09in /  1018.8hPa Calm   4.0mph /  6.4km/h 58% 0.00in /  0mm
02:24 31.4 °F /  -0.3 °C 18.3 °F /  -7.6 °C 30.08in /  1018.5hPa West 1.0mph /  1.6km/h 4.0mph /  6.4km/h 58% 0.00in /  0mm
02:34 31.1 °F /  -0.5 °C 18.4 °F /  -7.6 °C 30.08in /  1018.5hPa Calm   2.0mph /  3.2km/h 59% 0.00in /  0mm
02:39 30.9 °F /  -0.6 °C 18.6 °F /  -7.4 °C 30.08in /  1018.5hPa Calm   2.0mph /  3.2km/h 60% 0.00in /  0mm
02:44 30.9 °F /  -0.6 °C 18.6 °F /  -7.4 °C 30.08in /  1018.5hPa Calm   2.0mph /  3.2km/h 60% 0.00in /  0mm
02:49 31.0 °F /  -0.6 °C 19.1 °F /  -7.2 °C 30.08in /  1018.5hPa Calm   1.0mph /  1.6km/h 61% 0.00in /  0mm
02:54 31.0 °F /  -0.6 °C 19.1 °F /  -7.2 °C 30.08in /  1018.5hPa Calm   1.0mph /  1.6km/h 61% 0.00in /  0mm
02:59 31.1 °F /  -0.5 °C 19.2 °F /  -7.1 °C 30.08in /  1018.5hPa Calm   2.0mph /  3.2km/h 61% 0.00in /  0mm
03:04 31.1 °F /  -0.5 °C 19.2 °F /  -7.1 °C 30.08in /  1018.5hPa Calm   2.0mph /  3.2km/h 61% 0.00in /  0mm
03:09 31.0 °F /  -0.6 °C 19.1 °F /  -7.2 °C 30.07in /  1018.2hPa Calm     61% 0.00in /  0mm
03:14 31.1 °F /  -0.5 °C 19.2 °F /  -7.1 °C 30.07in /  1018.2hPa Calm   3.0mph /  4.8km/h 61% 0.00in /  0mm
03:19 31.2 °F /  -0.4 °C 19.3 °F /  -7.1 °C 30.07in /  1018.2hPa Calm   3.0mph /  4.8km/h 61% 0.00in /  0mm
03:24 31.1 °F /  -0.5 °C 19.6 °F /  -6.9 °C 30.07in /  1018.2hPa West 1.0mph /  1.6km/h 5.0mph /  8km/h 62% 0.00in /  0mm
03:29 31.1 °F /  -0.5 °C 19.6 °F /  -6.9 °C 30.07in /  1018.2hPa Calm   5.0mph /  8km/h 62% 0.00in /  0mm
03:34 31.1 °F /  -0.5 °C 19.6 °F /  -6.9 °C 30.07in /  1018.2hPa Calm   2.0mph /  3.2km/h 62% 0.00in /  0mm
03:39 31.2 °F /  -0.4 °C 19.7 °F /  -6.8 °C 30.07in /  1018.2hPa Calm   3.0mph /  4.8km/h 62% 0.00in /  0mm
03:44 31.1 °F /  -0.5 °C 20.0 °F /  -6.7 °C 30.07in /  1018.2hPa Calm   3.0mph /  4.8km/h 63% 0.00in /  0mm
03:49 31.0 °F /  -0.6 °C 19.9 °F /  -6.7 °C 30.07in /  1018.2hPa Calm   4.0mph /  6.4km/h 63% 0.00in /  0mm
03:54 30.9 °F /  -0.6 °C 19.8 °F /  -6.8 °C 30.07in /  1018.2hPa West 1.0mph /  1.6km/h 5.0mph /  8km/h 63% 0.00in /  0mm
03:59 31.0 °F /  -0.6 °C 19.9 °F /  -6.7 °C 30.07in /  1018.2hPa Calm   5.0mph /  8km/h 63% 0.00in /  0mm
04:04 31.1 °F /  -0.5 °C 20.3 °F /  -6.5 °C 30.07in /  1018.2hPa Calm   3.0mph /  4.8km/h 64% 0.00in /  0mm
04:09 31.0 °F /  -0.6 °C 20.3 °F /  -6.5 °C 30.07in /  1018.2hPa Calm   3.0mph /  4.8km/h 64% 0.00in /  0mm
04:14 31.0 °F /  -0.6 °C 20.3 °F /  -6.5 °C 30.07in /  1018.2hPa Calm   4.0mph /  6.4km/h 64% 0.00in /  0mm
04:19 31.0 °F /  -0.6 °C 20.3 °F /  -6.5 °C 30.07in /  1018.2hPa Calm   4.0mph /  6.4km/h 64% 0.00in /  0mm
04:24 31.0 °F /  -0.6 °C 20.6 °F /  -6.3 °C 30.07in /  1018.2hPa Calm   3.0mph /  4.8km/h 65% 0.00in /  0mm
04:29 31.0 °F /  -0.6 °C 20.6 °F /  -6.3 °C 30.07in /  1018.2hPa Calm   2.0mph /  3.2km/h 65% 0.00in /  0mm
04:34 30.9 °F /  -0.6 °C 20.5 °F /  -6.4 °C 30.07in /  1018.2hPa Calm   2.0mph /  3.2km/h 65% 0.00in /  0mm
04:39 30.8 °F /  -0.7 °C 20.8 °F /  -6.2 °C 30.07in /  1018.2hPa Calm   2.0mph /  3.2km/h 66% 0.00in /  0mm
04:44 30.6 °F /  -0.8 °C 20.6 °F /  -6.3 °C 30.07in /  1018.2hPa Calm   2.0mph /  3.2km/h 66% 0.00in /  0mm
04:49 30.4 °F /  -0.9 °C 20.8 °F /  -6.2 °C 30.07in /  1018.2hPa Calm     67% 0.00in /  0mm
04:54 30.3 °F /  -0.9 °C 20.7 °F /  -6.3 °C 30.07in /  1018.2hPa Calm   2.0mph /  3.2km/h 67% 0.00in /  0mm
04:59 30.2 °F /  -1 °C 20.6 °F /  -6.3 °C 30.07in /  1018.2hPa Calm   2.0mph /  3.2km/h 67% 0.00in /  0mm
05:04 29.9 °F /  -1.2 °C 20.6 °F /  -6.3 °C 30.07in /  1018.2hPa Calm   1.0mph /  1.6km/h 68% 0.00in /  0mm
05:09 29.7 °F /  -1.3 °C 20.4 °F /  -6.4 °C 30.07in /  1018.2hPa Calm   1.0mph /  1.6km/h 68% 0.00in /  0mm
05:14 29.5 °F /  -1.4 °C 20.6 °F /  -6.3 °C 30.07in /  1018.2hPa Calm   2.0mph /  3.2km/h 69% 0.00in /  0mm
05:19 29.7 °F /  -1.3 °C 20.4 °F /  -6.4 °C 30.07in /  1018.2hPa Calm   5.0mph /  8km/h 68% 0.00in /  0mm
05:24 29.7 °F /  -1.3 °C 20.4 °F /  -6.4 °C 30.07in /  1018.2hPa Calm   5.0mph /  8km/h 68% 0.00in /  0mm
05:29 29.7 °F /  -1.3 °C 20.4 °F /  -6.4 °C 30.07in /  1018.2hPa West 2.0mph /  3.2km/h 5.0mph /  8km/h 68% 0.00in /  0mm
05:34 29.8 °F /  -1.2 °C 20.5 °F /  -6.4 °C 30.07in /  1018.2hPa Calm   5.0mph /  8km/h 68% 0.00in /  0mm
05:39 30.0 °F /  -1.1 °C 20.7 °F /  -6.3 °C 30.07in /  1018.2hPa Calm   4.0mph /  6.4km/h 68% 0.00in /  0mm
05:44 30.1 °F /  -1.1 °C 20.8 °F /  -6.2 °C 30.07in /  1018.2hPa Calm   4.0mph /  6.4km/h 68% 0.00in /  0mm
05:49 30.1 °F /  -1.1 °C 20.5 °F /  -6.4 °C 30.07in /  1018.2hPa West 2.0mph /  3.2km/h 8.0mph /  12.9km/h 67% 0.00in /  0mm
05:54 30.3 °F /  -0.9 °C 20.7 °F /  -6.3 °C 30.07in /  1018.2hPa West 1.0mph /  1.6km/h 8.0mph /  12.9km/h 67% 0.00in /  0mm
05:59 30.4 °F /  -0.9 °C 20.8 °F /  -6.2 °C 30.07in /  1018.2hPa Calm   4.0mph /  6.4km/h 67% 0.00in /  0mm
06:04 30.5 °F /  -0.8 °C 20.9 °F /  -6.2 °C 30.07in /  1018.2hPa West 2.0mph /  3.2km/h 6.0mph /  9.7km/h 67% 0.00in /  0mm
06:09 31.0 °F /  -0.6 °C 20.6 °F /  -6.3 °C 30.07in /  1018.2hPa West 4.0mph /  6.4km/h 9.0mph /  14.5km/h 65% 0.00in /  0mm
06:14 31.6 °F /  -0.2 °C 20.8 °F /  -6.2 °C 30.07in /  1018.2hPa WNW 2.0mph /  3.2km/h 9.0mph /  14.5km/h 64% 0.00in /  0mm
06:19 31.7 °F /  -0.2 °C 20.9 °F /  -6.2 °C 30.07in /  1018.2hPa WNW 2.0mph /  3.2km/h 7.0mph /  11.3km/h 64% 0.00in /  0mm
06:24 32.1 °F /  0.1 °C 20.9 °F /  -6.2 °C 30.07in /  1018.2hPa WNW 1.0mph /  1.6km/h 6.0mph /  9.7km/h 63% 0.00in /  0mm
06:29 32.3 °F /  0.2 °C 21.1 °F /  -6.1 °C 30.07in /  1018.2hPa WNW 1.0mph /  1.6km/h 6.0mph /  9.7km/h 63% 0.00in /  0mm
06:34 32.6 °F /  0.3 °C 21.0 °F /  -6.1 °C 30.08in /  1018.5hPa West 1.0mph /  1.6km/h 8.0mph /  12.9km/h 62% 0.00in /  0mm
06:39 32.9 °F /  0.5 °C 20.5 °F /  -6.4 °C 30.08in /  1018.5hPa WNW 5.0mph /  8km/h 12.0mph /  19.3km/h 60% 0.00in /  0mm
06:44 33.0 °F /  0.6 °C 21.0 °F /  -6.1 °C 30.08in /  1018.5hPa WNW 2.0mph /  3.2km/h 12.0mph /  19.3km/h 61% 0.00in /  0mm
06:49 33.0 °F /  0.6 °C 21.0 °F /  -6.1 °C 30.08in /  1018.5hPa West 2.0mph /  3.2km/h 6.0mph /  9.7km/h 61% 0.00in /  0mm
06:54 33.0 °F /  0.6 °C 21.0 °F /  -6.1 °C 30.08in /  1018.5hPa WNW 3.0mph /  4.8km/h 9.0mph /  14.5km/h 61% 0.00in /  0mm
06:59 33.2 °F /  0.7 °C 20.8 °F /  -6.2 °C 30.08in /  1018.5hPa WNW 2.0mph /  3.2km/h 11.0mph /  17.7km/h 60% 0.00in /  0mm
07:04 33.3 °F /  0.7 °C 20.9 °F /  -6.2 °C 30.08in /  1018.5hPa WNW 3.0mph /  4.8km/h 11.0mph /  17.7km/h 60% 0.00in /  0mm
07:09 33.4 °F /  0.8 °C 21.0 °F /  -6.1 °C 30.09in /  1018.8hPa WNW 2.0mph /  3.2km/h 7.0mph /  11.3km/h 60% 0.00in /  0mm
07:14 33.5 °F /  0.8 °C 21.1 °F /  -6.1 °C 30.09in /  1018.8hPa WNW 4.0mph /  6.4km/h 8.0mph /  12.9km/h 60% 0.00in /  0mm
07:19 33.7 °F /  0.9 °C 21.3 °F /  -5.9 °C 30.09in /  1018.8hPa WNW 4.0mph /  6.4km/h 13.0mph /  20.9km/h 60% 0.00in /  0mm
07:24 34.1 °F /  1.2 °C 20.9 °F /  -6.2 °C 30.09in /  1018.8hPa NW 5.0mph /  8km/h 13.0mph /  20.9km/h 58% 0.00in /  0mm
07:29 34.4 °F /  1.3 °C 21.6 °F /  -5.8 °C 30.09in /  1018.8hPa WNW 2.0mph /  3.2km/h 9.0mph /  14.5km/h 59% 0.00in /  0mm
07:34 34.8 °F /  1.6 °C 21.5 °F /  -5.8 °C 30.09in /  1018.8hPa WNW 3.0mph /  4.8km/h 9.0mph /  14.5km/h 58% 0.00in /  0mm
07:39 35.1 °F /  1.7 °C 21.4 °F /  -5.9 °C 30.09in /  1018.8hPa NNW 3.0mph /  4.8km/h 9.0mph /  14.5km/h 57% 0.00in /  0mm
07:45 35.5 °F /  1.9 °C 20.9 °F /  -6.2 °C 30.09in /  1018.8hPa NW 5.0mph /  8km/h 13.0mph /  20.9km/h 55% 0.00in /  0mm
07:54 36.0 °F /  2.2 °C 19.6 °F /  -6.9 °C 30.09in /  1018.8hPa WNW 8.0mph /  12.9km/h 14.0mph /  22.5km/h 51% 0.00in /  0mm
07:59 35.8 °F /  2.1 °C 18.5 °F /  -7.5 °C 30.09in /  1018.8hPa NW 6.0mph /  9.7km/h 14.0mph /  22.5km/h 49% 0.00in /  0mm
08:04 35.9 °F /  2.2 °C 17.6 °F /  -8 °C 30.09in /  1018.8hPa NW 8.0mph /  12.9km/h 16.0mph /  25.7km/h 47% 0.00in /  0mm
08:09 36.4 °F /  2.4 °C 18.1 °F /  -7.7 °C 30.09in /  1018.8hPa NW 4.0mph /  6.4km/h 16.0mph /  25.7km/h 47% 0.00in /  0mm
08:14 36.9 °F /  2.7 °C 18.5 °F /  -7.5 °C 30.09in /  1018.8hPa NNW 4.0mph /  6.4km/h 10.0mph /  16.1km/h 47% 0.00in /  0mm
08:19 37.1 °F /  2.8 °C 17.7 °F /  -7.9 °C 30.09in /  1018.8hPa WNW 8.0mph /  12.9km/h 14.0mph /  22.5km/h 45% 0.00in /  0mm
08:24 37.4 °F /  3 °C 19.0 °F /  -7.2 °C 30.10in /  1019.2hPa NW 3.0mph /  4.8km/h 14.0mph /  22.5km/h 47% 0.00in /  0mm
08:29 36.9 °F /  2.7 °C 18.5 °F /  -7.5 °C 30.10in /  1019.2hPa NW 5.0mph /  8km/h 14.0mph /  22.5km/h 47% 0.00in /  0mm
08:34 36.8 °F /  2.7 °C 16.9 °F /  -8.4 °C 30.10in /  1019.2hPa WNW 10.0mph /  16.1km/h 16.0mph /  25.7km/h 44% 0.00in /  0mm
08:44 37.3 °F /  2.9 °C 17.9 °F /  -7.8 °C 30.10in /  1019.2hPa NNW 6.0mph /  9.7km/h 14.0mph /  22.5km/h 45% 0.00in /  0mm
08:49 37.4 °F /  3 °C 18.5 °F /  -7.5 °C 30.10in /  1019.2hPa NW 4.0mph /  6.4km/h 14.0mph /  22.5km/h 46% 0.00in /  0mm
08:54 38.1 °F /  3.4 °C 19.6 °F /  -6.9 °C 30.10in /  1019.2hPa NNW 3.0mph /  4.8km/h 14.0mph /  22.5km/h 47% 0.00in /  0mm
08:59 38.0 °F /  3.3 °C 19.6 °F /  -6.9 °C 30.10in /  1019.2hPa NNW 2.0mph /  3.2km/h 17.0mph /  27.4km/h 47% 0.00in /  0mm
09:04 38.4 °F /  3.6 °C 18.9 °F /  -7.3 °C 30.11in /  1019.5hPa NNW 7.0mph /  11.3km/h 17.0mph /  27.4km/h 45% 0.00in /  0mm
09:09 38.3 °F /  3.5 °C 17.2 °F /  -8.2 °C 30.10in /  1019.2hPa NNW 8.0mph /  12.9km/h 17.0mph /  27.4km/h 42% 0.00in /  0mm
09:14 38.5 °F /  3.6 °C 17.4 °F /  -8.1 °C 30.10in /  1019.2hPa NNW 2.0mph /  3.2km/h 17.0mph /  27.4km/h 42% 0.00in /  0mm
09:24 38.5 °F /  3.6 °C 17.9 °F /  -7.8 °C 30.11in /  1019.5hPa NNW 8.0mph /  12.9km/h 15.0mph /  24.1km/h 43% 0.00in /  0mm
09:29 38.7 °F /  3.7 °C 17.6 °F /  -8 °C 30.11in /  1019.5hPa NW 7.0mph /  11.3km/h 16.0mph /  25.7km/h 42% 0.00in /  0mm
09:34 39.1 °F /  3.9 °C 17.9 °F /  -7.8 °C 30.11in /  1019.5hPa NW 6.0mph /  9.7km/h 16.0mph /  25.7km/h 42% 0.00in /  0mm
09:39 38.8 °F /  3.8 °C 17.7 °F /  -7.9 °C 30.11in /  1019.5hPa WNW 8.0mph /  12.9km/h 18.0mph /  29km/h 42% 0.00in /  0mm
09:44 38.9 °F /  3.8 °C 17.8 °F /  -7.9 °C 30.11in /  1019.5hPa WNW 7.0mph /  11.3km/h 18.0mph /  29km/h 42% 0.00in /  0mm
09:49 39.4 °F /  4.1 °C 18.2 °F /  -7.7 °C 30.11in /  1019.5hPa NW 8.0mph /  12.9km/h 16.0mph /  25.7km/h 42% 0.00in /  0mm
09:59 38.6 °F /  3.7 °C 16.9 °F /  -8.4 °C 30.11in /  1019.5hPa NW 9.0mph /  14.5km/h 23.0mph /  37km/h 41% 0.00in /  0mm
10:04 39.3 °F /  4.1 °C 15.8 °F /  -9 °C 30.11in /  1019.5hPa NW 6.0mph /  9.7km/h 20.0mph /  32.2km/h 38% 0.00in /  0mm
10:09 39.8 °F /  4.3 °C 15.6 °F /  -9.1 °C 30.11in /  1019.5hPa NNW 5.0mph /  8km/h 16.0mph /  25.7km/h 37% 0.00in /  0mm
10:14 40.2 °F /  4.6 °C 14.7 °F /  -9.6 °C 30.11in /  1019.5hPa NW 7.0mph /  11.3km/h 14.0mph /  22.5km/h 35% 0.00in /  0mm
10:19 40.3 °F /  4.6 °C 14.8 °F /  -9.6 °C 30.11in /  1019.5hPa WNW 12.0mph /  19.3km/h 17.0mph /  27.4km/h 35% 0.00in /  0mm
10:24 40.7 °F /  4.8 °C 14.5 °F /  -9.7 °C 30.10in /  1019.2hPa NNW 6.0mph /  9.7km/h 17.0mph /  27.4km/h 34% 0.00in /  0mm
10:29 41.1 °F /  5.1 °C 14.9 °F /  -9.5 °C 30.11in /  1019.5hPa NW 7.0mph /  11.3km/h 16.0mph /  25.7km/h 34% 0.00in /  0mm
10:34 40.1 °F /  4.5 °C 14.6 °F /  -9.7 °C 30.11in /  1019.5hPa NNW 6.0mph /  9.7km/h 17.0mph /  27.4km/h 35% 0.00in /  0mm
10:39 40.7 °F /  4.8 °C 15.2 °F /  -9.3 °C 30.11in /  1019.5hPa NNW 7.0mph /  11.3km/h 17.0mph /  27.4km/h 35% 0.00in /  0mm
10:44 41.1 °F /  5.1 °C 16.2 °F /  -8.8 °C 30.10in /  1019.2hPa NNW 4.0mph /  6.4km/h 15.0mph /  24.1km/h 36% 0.00in /  0mm
10:49 41.3 °F /  5.2 °C 14.3 °F /  -9.8 °C 30.11in /  1019.5hPa NW 8.0mph /  12.9km/h 16.0mph /  25.7km/h 33% 0.00in /  0mm
10:54 41.3 °F /  5.2 °C 13.6 °F /  -10.2 °C 30.11in /  1019.5hPa NW 9.0mph /  14.5km/h 16.0mph /  25.7km/h 32% 0.00in /  0mm
10:59 41.4 °F /  5.2 °C 15.1 °F /  -9.4 °C 30.10in /  1019.2hPa WNW 8.0mph /  12.9km/h 16.0mph /  25.7km/h 34% 0.00in /  0mm
11:04 41.4 °F /  5.2 °C 13.0 °F /  -10.6 °C 30.10in /  1019.2hPa NW 7.0mph /  11.3km/h 16.0mph /  25.7km/h 31% 0.00in /  0mm
11:09 41.0 °F /  5 °C 14.8 °F /  -9.6 °C 30.10in /  1019.2hPa WNW 8.0mph /  12.9km/h 21.0mph /  33.8km/h 34% 0.00in /  0mm
11:14 41.4 °F /  5.2 °C 12.3 °F /  -10.9 °C 30.10in /  1019.2hPa NW 10.0mph /  16.1km/h 21.0mph /  33.8km/h 30% 0.00in /  0mm
11:19 41.5 °F /  5.3 °C 13.8 °F /  -10.1 °C 30.10in /  1019.2hPa NW 7.0mph /  11.3km/h 20.0mph /  32.2km/h 32% 0.00in /  0mm
11:24 42.2 °F /  5.7 °C 15.1 °F /  -9.4 °C 30.10in /  1019.2hPa NW 4.0mph /  6.4km/h 17.0mph /  27.4km/h 33% 0.00in /  0mm
11:34 42.7 °F /  5.9 °C 12.6 °F /  -10.8 °C 30.10in /  1019.2hPa NNW 8.0mph /  12.9km/h 21.0mph /  33.8km/h 29% 0.00in /  0mm
11:39 42.5 °F /  5.8 °C 14.7 °F /  -9.6 °C 30.10in /  1019.2hPa NNW 6.0mph /  9.7km/h 21.0mph /  33.8km/h 32% 0.00in /  0mm
11:44 43.0 °F /  6.1 °C 16.5 °F /  -8.6 °C 30.10in /  1019.2hPa North 6.0mph /  9.7km/h 15.0mph /  24.1km/h 34% 0.00in /  0mm
11:49 43.3 °F /  6.3 °C 16.8 °F /  -8.4 °C 30.11in /  1019.5hPa NNW 5.0mph /  8km/h 15.0mph /  24.1km/h 34% 0.00in /  0mm
11:54 43.4 °F /  6.3 °C 16.2 °F /  -8.8 °C 30.11in /  1019.5hPa NNW 5.0mph /  8km/h 14.0mph /  22.5km/h 33% 0.00in /  0mm
11:59 43.6 °F /  6.4 °C 16.4 °F /  -8.7 °C 30.11in /  1019.5hPa NNW 10.0mph /  16.1km/h 23.0mph /  37km/h 33% 0.00in /  0mm
12:04 43.0 °F /  6.1 °C 15.1 °F /  -9.4 °C 30.11in /  1019.5hPa NW 5.0mph /  8km/h 23.0mph /  37km/h 32% 0.00in /  0mm
12:09 42.9 °F /  6.1 °C 13.6 °F /  -10.2 °C 30.11in /  1019.5hPa NNW 10.0mph /  16.1km/h 22.0mph /  35.4km/h 30% 0.00in /  0mm
12:14 43.0 °F /  6.1 °C 16.5 °F /  -8.6 °C 30.11in /  1019.5hPa NNW 6.0mph /  9.7km/h 22.0mph /  35.4km/h 34% 0.00in /  0mm
12:19 43.3 °F /  6.3 °C 15.4 °F /  -9.2 °C 30.11in /  1019.5hPa NNW 9.0mph /  14.5km/h 17.0mph /  27.4km/h 32% 0.00in /  0mm
12:24 43.3 °F /  6.3 °C 16.1 °F /  -8.8 °C 30.11in /  1019.5hPa NNW 5.0mph /  8km/h 17.0mph /  27.4km/h 33% 0.00in /  0mm
12:29 43.1 °F /  6.2 °C 13.0 °F /  -10.6 °C 30.11in /  1019.5hPa WNW 3.0mph /  4.8km/h 16.0mph /  25.7km/h 29% 0.00in /  0mm
12:39 43.3 °F /  6.3 °C 17.5 °F /  -8.1 °C 30.09in /  1018.8hPa NNW 4.0mph /  6.4km/h 16.0mph /  25.7km/h 35% 0.00in /  0mm
12:49 43.4 °F /  6.3 °C 18.2 °F /  -7.7 °C 30.10in /  1019.2hPa North 7.0mph /  11.3km/h 16.0mph /  25.7km/h 36% 0.00in /  0mm
12:59 43.1 °F /  6.2 °C 15.2 °F /  -9.3 °C 30.10in /  1019.2hPa NW 8.0mph /  12.9km/h 23.0mph /  37km/h 32% 0.00in /  0mm
13:04 43.6 °F /  6.4 °C 15.7 °F /  -9.1 °C 30.10in /  1019.2hPa NNW 6.0mph /  9.7km/h 19.0mph /  30.6km/h 32% 0.00in /  0mm
13:09 44.1 °F /  6.7 °C 15.4 °F /  -9.2 °C 30.10in /  1019.2hPa WNW 8.0mph /  12.9km/h 16.0mph /  25.7km/h 31% 0.00in /  0mm
13:14 43.9 °F /  6.6 °C 15.9 °F /  -8.9 °C 30.10in /  1019.2hPa NW 12.0mph /  19.3km/h 20.0mph /  32.2km/h 32% 0.00in /  0mm
13:19 43.1 °F /  6.2 °C 15.2 °F /  -9.3 °C 30.10in /  1019.2hPa WNW 8.0mph /  12.9km/h 23.0mph /  37km/h 32% 0.00in /  0mm
13:29 43.6 °F /  6.4 °C 14.2 °F /  -9.9 °C 30.11in /  1019.5hPa NNW 6.0mph /  9.7km/h 25.0mph /  40.2km/h 30% 0.00in /  0mm
13:34 44.0 °F /  6.7 °C 16.0 °F /  -8.9 °C 30.11in /  1019.5hPa NNW 7.0mph /  11.3km/h 19.0mph /  30.6km/h 32% 0.00in /  0mm
13:39 44.8 °F /  7.1 °C 16.7 °F /  -8.5 °C 30.11in /  1019.5hPa NNW 6.0mph /  9.7km/h 19.0mph /  30.6km/h 32% 0.00in /  0mm
13:44 45.5 °F /  7.5 °C 16.6 °F /  -8.6 °C 30.11in /  1019.5hPa NNW 5.0mph /  8km/h 15.0mph /  24.1km/h 31% 0.00in /  0mm
13:49 45.6 °F /  7.6 °C 16.7 °F /  -8.5 °C 30.11in /  1019.5hPa NW 5.0mph /  8km/h 13.0mph /  20.9km/h 31% 0.00in /  0mm
13:54 45.2 °F /  7.3 °C 16.3 °F /  -8.7 °C 30.11in /  1019.5hPa NNW 4.0mph /  6.4km/h 22.0mph /  35.4km/h 31% 0.00in /  0mm
13:59 45.0 °F /  7.2 °C 15.4 °F /  -9.2 °C 30.10in /  1019.2hPa NW 8.0mph /  12.9km/h 22.0mph /  35.4km/h 30% 0.00in /  0mm
14:04 45.3 °F /  7.4 °C 17.2 °F /  -8.2 °C 30.12in /  1019.9hPa NNW 7.0mph /  11.3km/h 19.0mph /  30.6km/h 32% 0.00in /  0mm
14:09 45.1 °F /  7.3 °C 16.3 °F /  -8.7 °C 30.11in /  1019.5hPa NNW 8.0mph /  12.9km/h 21.0mph /  33.8km/h 31% 0.00in /  0mm
14:14 44.3 °F /  6.8 °C 15.6 °F /  -9.1 °C 30.11in /  1019.5hPa WNW 8.0mph /  12.9km/h 21.0mph /  33.8km/h 31% 0.00in /  0mm
14:19 44.7 °F /  7.1 °C 17.3 °F /  -8.2 °C 30.11in /  1019.5hPa NNW 8.0mph /  12.9km/h 19.0mph /  30.6km/h 33% 0.00in /  0mm
14:29 45.3 °F /  7.4 °C 15.7 °F /  -9.1 °C 30.12in /  1019.9hPa NNW 7.0mph /  11.3km/h 21.0mph /  33.8km/h 30% 0.00in /  0mm
14:34 45.4 °F /  7.4 °C 15.0 °F /  -9.4 °C 30.11in /  1019.5hPa NNW 7.0mph /  11.3km/h 21.0mph /  33.8km/h 29% 0.00in /  0mm
14:39 45.0 °F /  7.2 °C 13.8 °F /  -10.1 °C 30.11in /  1019.5hPa NW 9.0mph /  14.5km/h 21.0mph /  33.8km/h 28% 0.00in /  0mm
14:44 45.8 °F /  7.7 °C 16.9 °F /  -8.4 °C 30.11in /  1019.5hPa NNW 8.0mph /  12.9km/h 21.0mph /  33.8km/h 31% 0.00in /  0mm
14:49 46.1 °F /  7.8 °C 15.6 °F /  -9.1 °C 30.11in /  1019.5hPa NNW 7.0mph /  11.3km/h 17.0mph /  27.4km/h 29% 0.00in /  0mm
14:54 46.0 °F /  7.8 °C 15.5 °F /  -9.2 °C 30.11in /  1019.5hPa NNW 8.0mph /  12.9km/h 19.0mph /  30.6km/h 29% 0.00in /  0mm
14:59 46.0 °F /  7.8 °C 15.5 °F /  -9.2 °C 30.11in /  1019.5hPa North 8.0mph /  12.9km/h 19.0mph /  30.6km/h 29% 0.00in /  0mm
15:04 46.1 °F /  7.8 °C 17.1 °F /  -8.3 °C 30.11in /  1019.5hPa North 7.0mph /  11.3km/h 22.0mph /  35.4km/h 31% 0.00in /  0mm
15:09 46.5 °F /  8.1 °C 15.9 °F /  -8.9 °C 30.11in /  1019.5hPa NNW 9.0mph /  14.5km/h 22.0mph /  35.4km/h 29% 0.00in /  0mm
15:14 46.9 °F /  8.3 °C 14.6 °F /  -9.7 °C 30.11in /  1019.5hPa NNW 8.0mph /  12.9km/h 18.0mph /  29km/h 27% 0.00in /  0mm
15:19 46.7 °F /  8.2 °C 16.9 °F /  -8.4 °C 30.11in /  1019.5hPa NNW 4.0mph /  6.4km/h 17.0mph /  27.4km/h 30% 0.00in /  0mm
15:24 46.4 °F /  8 °C 14.2 °F /  -9.9 °C 30.11in /  1019.5hPa NW 12.0mph /  19.3km/h 18.0mph /  29km/h 27% 0.00in /  0mm
15:29 46.0 °F /  7.8 °C 16.3 °F /  -8.7 °C 30.12in /  1019.9hPa NNW 11.0mph /  17.7km/h 21.0mph /  33.8km/h 30% 0.00in /  0mm
15:34 46.2 °F /  7.9 °C 14.9 °F /  -9.5 °C 30.11in /  1019.5hPa NW 9.0mph /  14.5km/h 21.0mph /  33.8km/h 28% 0.00in /  0mm
15:39 46.4 °F /  8 °C 17.4 °F /  -8.1 °C 30.11in /  1019.5hPa NNW 7.0mph /  11.3km/h 20.0mph /  32.2km/h 31% 0.00in /  0mm
15:44 46.5 °F /  8.1 °C 16.7 °F /  -8.5 °C 30.12in /  1019.9hPa NW 11.0mph /  17.7km/h 20.0mph /  32.2km/h 30% 0.00in /  0mm
15:49 46.8 °F /  8.2 °C 17.0 °F /  -8.3 °C 30.12in /  1019.9hPa NNW 6.0mph /  9.7km/h 19.0mph /  30.6km/h 30% 0.00in /  0mm
15:54 46.7 °F /  8.2 °C 16.1 °F /  -8.8 °C 30.12in /  1019.9hPa NW 6.0mph /  9.7km/h 18.0mph /  29km/h 29% 0.00in /  0mm
15:59 46.6 °F /  8.1 °C 15.2 °F /  -9.3 °C 30.12in /  1019.9hPa NNW 10.0mph /  16.1km/h 20.0mph /  32.2km/h 28% 0.00in /  0mm
16:04 46.9 °F /  8.3 °C 17.8 °F /  -7.9 °C 30.12in /  1019.9hPa North 4.0mph /  6.4km/h 20.0mph /  32.2km/h 31% 0.00in /  0mm
16:09 46.7 °F /  8.2 °C 14.5 °F /  -9.7 °C 30.12in /  1019.9hPa NW 12.0mph /  19.3km/h 21.0mph /  33.8km/h 27% 0.00in /  0mm
16:14 46.2 °F /  7.9 °C 15.7 °F /  -9.1 °C 30.12in /  1019.9hPa NNW 6.0mph /  9.7km/h 23.0mph /  37km/h 29% 0.00in /  0mm
16:19 46.6 °F /  8.1 °C 16.0 °F /  -8.9 °C 30.13in /  1020.2hPa NNW 8.0mph /  12.9km/h 23.0mph /  37km/h 29% 0.00in /  0mm
16:24 46.4 °F /  8 °C 14.2 °F /  -9.9 °C 30.13in /  1020.2hPa NW 10.0mph /  16.1km/h 20.0mph /  32.2km/h 27% 0.00in /  0mm
16:29 46.1 °F /  7.8 °C 15.6 °F /  -9.1 °C 30.13in /  1020.2hPa NW 8.0mph /  12.9km/h 17.0mph /  27.4km/h 29% 0.00in /  0mm
16:34 45.4 °F /  7.4 °C 15.0 °F /  -9.4 °C 30.12in /  1019.9hPa NW 9.0mph /  14.5km/h 21.0mph /  33.8km/h 29% 0.00in /  0mm
16:39 46.4 °F /  8 °C 15.9 °F /  -8.9 °C 30.13in /  1020.2hPa North 6.0mph /  9.7km/h 21.0mph /  33.8km/h 29% 0.00in /  0mm
16:44 46.9 °F /  8.3 °C 16.3 °F /  -8.7 °C 30.12in /  1019.9hPa NNW 5.0mph /  8km/h 16.0mph /  25.7km/h 29% 0.00in /  0mm
16:49 47.2 °F /  8.4 °C 15.7 °F /  -9.1 °C 30.13in /  1020.2hPa NW 7.0mph /  11.3km/h 16.0mph /  25.7km/h 28% 0.00in /  0mm
16:54 46.4 °F /  8 °C 15.0 °F /  -9.4 °C 30.13in /  1020.2hPa NW 9.0mph /  14.5km/h 22.0mph /  35.4km/h 28% 0.00in /  0mm
17:04 46.2 °F /  7.9 °C 15.7 °F /  -9.1 °C 30.13in /  1020.2hPa WNW 11.0mph /  17.7km/h 19.0mph /  30.6km/h 29% 0.00in /  0mm
17:09 46.7 °F /  8.2 °C 14.5 °F /  -9.7 °C 30.13in /  1020.2hPa NW 7.0mph /  11.3km/h 19.0mph /  30.6km/h 27% 0.00in /  0mm
17:14 46.3 °F /  7.9 °C 13.3 °F /  -10.4 °C 30.13in /  1020.2hPa NW 12.0mph /  19.3km/h 22.0mph /  35.4km/h 26% 0.00in /  0mm
17:19 45.9 °F /  7.7 °C 14.6 °F /  -9.7 °C 30.13in /  1020.2hPa NNW 7.0mph /  11.3km/h 22.0mph /  35.4km/h 28% 0.00in /  0mm
17:24 46.1 °F /  7.8 °C 14.8 °F /  -9.6 °C 30.14in /  1020.5hPa NNW 9.0mph /  14.5km/h 21.0mph /  33.8km/h 28% 0.00in /  0mm
17:29 46.2 °F /  7.9 °C 14.9 °F /  -9.5 °C 30.14in /  1020.5hPa NNW 8.0mph /  12.9km/h 19.0mph /  30.6km/h 28% 0.00in /  0mm
17:39 45.5 °F /  7.5 °C 12.6 °F /  -10.8 °C 30.14in /  1020.5hPa NW 8.0mph /  12.9km/h 21.0mph /  33.8km/h 26% 0.00in /  0mm
17:44 45.6 °F /  7.6 °C 14.4 °F /  -9.8 °C 30.14in /  1020.5hPa North 5.0mph /  8km/h 19.0mph /  30.6km/h 28% 0.00in /  0mm
17:49 46.0 °F /  7.8 °C 13.9 °F /  -10.1 °C 30.14in /  1020.5hPa NNW 6.0mph /  9.7km/h 15.0mph /  24.1km/h 27% 0.00in /  0mm
17:54 45.6 °F /  7.6 °C 13.5 °F /  -10.3 °C 30.15in /  1020.9hPa NW 9.0mph /  14.5km/h 18.0mph /  29km/h 27% 0.00in /  0mm
17:59 45.4 °F /  7.4 °C 14.2 °F /  -9.9 °C 30.14in /  1020.5hPa NW 8.0mph /  12.9km/h 18.0mph /  29km/h 28% 0.00in /  0mm
18:04 45.5 °F /  7.5 °C 12.6 °F /  -10.8 °C 30.14in /  1020.5hPa NW 7.0mph /  11.3km/h 15.0mph /  24.1km/h 26% 0.00in /  0mm
18:09 45.4 °F /  7.4 °C 13.4 °F /  -10.3 °C 30.15in /  1020.9hPa NW 11.0mph /  17.7km/h 19.0mph /  30.6km/h 27% 0.00in /  0mm
18:14 45.4 °F /  7.4 °C 14.2 °F /  -9.9 °C 30.15in /  1020.9hPa NNW 6.0mph /  9.7km/h 20.0mph /  32.2km/h 28% 0.00in /  0mm
18:19 45.7 °F /  7.6 °C 14.4 °F /  -9.8 °C 30.14in /  1020.5hPa NW 5.0mph /  8km/h 20.0mph /  32.2km/h 28% 0.00in /  0mm
18:24 45.9 °F /  7.7 °C 13.8 °F /  -10.1 °C 30.15in /  1020.9hPa NW 5.0mph /  8km/h 13.0mph /  20.9km/h 27% 0.00in /  0mm
18:29 45.9 °F /  7.7 °C 14.6 °F /  -9.7 °C 30.15in /  1020.9hPa NNW 3.0mph /  4.8km/h 13.0mph /  20.9km/h 28% 0.00in /  0mm
18:34 45.4 °F /  7.4 °C 14.2 °F /  -9.9 °C 30.15in /  1020.9hPa NW 6.0mph /  9.7km/h 16.0mph /  25.7km/h 28% 0.00in /  0mm
18:39 45.0 °F /  7.2 °C 13.8 °F /  -10.1 °C 30.15in /  1020.9hPa NW 9.0mph /  14.5km/h 20.0mph /  32.2km/h 28% 0.00in /  0mm
18:44 44.8 °F /  7.1 °C 13.7 °F /  -10.2 °C 30.15in /  1020.9hPa NW 8.0mph /  12.9km/h 20.0mph /  32.2km/h 28% 0.00in /  0mm
18:49 44.6 °F /  7 °C 13.5 °F /  -10.3 °C 30.15in /  1020.9hPa NW 4.0mph /  6.4km/h 17.0mph /  27.4km/h 28% 0.00in /  0mm
18:54 44.6 °F /  7 °C 13.5 °F /  -10.3 °C 30.15in /  1020.9hPa NW 9.0mph /  14.5km/h 17.0mph /  27.4km/h 28% 0.00in /  0mm
18:59 44.3 °F /  6.8 °C 14.0 °F /  -10 °C 30.15in /  1020.9hPa NW 7.0mph /  11.3km/h 19.0mph /  30.6km/h 29% 0.00in /  0mm
19:04 44.2 °F /  6.8 °C 13.9 °F /  -10.1 °C 30.15in /  1020.9hPa NW 6.0mph /  9.7km/h 19.0mph /  30.6km/h 29% 0.00in /  0mm
19:09 44.0 °F /  6.7 °C 13.8 °F /  -10.1 °C 30.15in /  1020.9hPa NW 4.0mph /  6.4km/h 13.0mph /  20.9km/h 29% 0.00in /  0mm
19:14 43.7 °F /  6.5 °C 13.5 °F /  -10.3 °C 30.15in /  1020.9hPa NW 7.0mph /  11.3km/h 17.0mph /  27.4km/h 29% 0.00in /  0mm
19:19 43.4 °F /  6.3 °C 13.2 °F /  -10.4 °C 30.16in /  1021.2hPa NW 8.0mph /  12.9km/h 17.0mph /  27.4km/h 29% 0.00in /  0mm
19:24 43.1 °F /  6.2 °C 13.8 °F /  -10.1 °C 30.15in /  1020.9hPa NNW 5.0mph /  8km/h 15.0mph /  24.1km/h 30% 0.00in /  0mm
19:29 42.9 °F /  6.1 °C 13.6 °F /  -10.2 °C 30.16in /  1021.2hPa NNW 4.0mph /  6.4km/h 17.0mph /  27.4km/h 30% 0.00in /  0mm
19:34 42.6 °F /  5.9 °C 14.1 °F /  -9.9 °C 30.16in /  1021.2hPa NW 4.0mph /  6.4km/h 17.0mph /  27.4km/h 31% 0.00in /  0mm
19:39 42.4 °F /  5.8 °C 13.1 °F /  -10.5 °C 30.16in /  1021.2hPa NW 7.0mph /  11.3km/h 14.0mph /  22.5km/h 30% 0.00in /  0mm
19:44 42.1 °F /  5.6 °C 13.6 °F /  -10.2 °C 30.16in /  1021.2hPa NNW 5.0mph /  8km/h 14.0mph /  22.5km/h 31% 0.00in /  0mm
19:49 41.8 °F /  5.4 °C 13.4 °F /  -10.3 °C 30.16in /  1021.2hPa NW 3.0mph /  4.8km/h 13.0mph /  20.9km/h 31% 0.00in /  0mm
19:54 41.5 °F /  5.3 °C 13.1 °F /  -10.5 °C 30.16in /  1021.2hPa NW 5.0mph /  8km/h 13.0mph /  20.9km/h 31% 0.00in /  0mm
19:59 41.3 °F /  5.2 °C 12.9 °F /  -10.6 °C 30.16in /  1021.2hPa NW 6.0mph /  9.7km/h 13.0mph /  20.9km/h 31% 0.00in /  0mm
20:04 41.2 °F /  5.1 °C 12.8 °F /  -10.7 °C 30.17in /  1021.6hPa NW 3.0mph /  4.8km/h 11.0mph /  17.7km/h 31% 0.00in /  0mm
20:09 41.1 °F /  5.1 °C 12.7 °F /  -10.7 °C 30.17in /  1021.6hPa NNW 4.0mph /  6.4km/h 11.0mph /  17.7km/h 31% 0.00in /  0mm
20:14 40.9 °F /  4.9 °C 12.6 °F /  -10.8 °C 30.17in /  1021.6hPa NW 2.0mph /  3.2km/h 11.0mph /  17.7km/h 31% 0.00in /  0mm
20:19 40.7 °F /  4.8 °C 13.1 °F /  -10.5 °C 30.17in /  1021.6hPa NNW 5.0mph /  8km/h 10.0mph /  16.1km/h 32% 0.00in /  0mm
20:24 40.6 °F /  4.8 °C 13.0 °F /  -10.6 °C 30.17in /  1021.6hPa NW 3.0mph /  4.8km/h 10.0mph /  16.1km/h 32% 0.00in /  0mm
20:29 40.4 °F /  4.7 °C 13.6 °F /  -10.2 °C 30.17in /  1021.6hPa NW 3.0mph /  4.8km/h 9.0mph /  14.5km/h 33% 0.00in /  0mm
20:34 40.4 °F /  4.7 °C 13.6 °F /  -10.2 °C 30.18in /  1021.9hPa NW 4.0mph /  6.4km/h 11.0mph /  17.7km/h 33% 0.00in /  0mm
20:39 40.3 °F /  4.6 °C 13.5 °F /  -10.3 °C 30.18in /  1021.9hPa NW 4.0mph /  6.4km/h 11.0mph /  17.7km/h 33% 0.00in /  0mm
20:44 40.1 °F /  4.5 °C 13.3 °F /  -10.4 °C 30.18in /  1021.9hPa NNW 2.0mph /  3.2km/h 9.0mph /  14.5km/h 33% 0.00in /  0mm
20:49 39.9 °F /  4.4 °C 13.8 °F /  -10.1 °C 30.18in /  1021.9hPa NNW 2.0mph /  3.2km/h 9.0mph /  14.5km/h 34% 0.00in /  0mm
20:54 39.7 °F /  4.3 °C 13.6 °F /  -10.2 °C 30.19in /  1022.2hPa Calm   8.0mph /  12.9km/h 34% 0.00in /  0mm
20:59 39.4 °F /  4.1 °C 14.0 °F /  -10 °C 30.19in /  1022.2hPa Calm   3.0mph /  4.8km/h 35% 0.00in /  0mm
21:04 39.2 °F /  4 °C 13.8 °F /  -10.1 °C 30.19in /  1022.2hPa NW 1.0mph /  1.6km/h 5.0mph /  8km/h 35% 0.00in /  0mm
21:09 39.0 °F /  3.9 °C 13.7 °F /  -10.2 °C 30.19in /  1022.2hPa Calm   5.0mph /  8km/h 35% 0.00in /  0mm
21:14 38.9 °F /  3.8 °C 14.2 °F /  -9.9 °C 30.20in /  1022.6hPa Calm   6.0mph /  9.7km/h 36% 0.00in /  0mm
21:19 38.7 °F /  3.7 °C 14.7 °F /  -9.6 °C 30.20in /  1022.6hPa Calm   6.0mph /  9.7km/h 37% 0.00in /  0mm
21:24 38.4 °F /  3.6 °C 15.0 °F /  -9.4 °C 30.20in /  1022.6hPa NNW 1.0mph /  1.6km/h 5.0mph /  8km/h 38% 0.00in /  0mm
21:29 38.3 °F /  3.5 °C 14.9 °F /  -9.5 °C 30.20in /  1022.6hPa Calm   5.0mph /  8km/h 38% 0.00in /  0mm
21:34 38.0 °F /  3.3 °C 15.2 °F /  -9.3 °C 30.21in /  1022.9hPa Calm   1.0mph /  1.6km/h 39% 0.00in /  0mm
21:39 37.7 °F /  3.2 °C 14.4 °F /  -9.8 °C 30.21in /  1022.9hPa Calm   1.0mph /  1.6km/h 38% 0.00in /  0mm
21:44 37.5 °F /  3.1 °C 15.4 °F /  -9.2 °C 30.21in /  1022.9hPa Calm     40% 0.00in /  0mm
21:54 37.3 °F /  2.9 °C 15.2 °F /  -9.3 °C 30.21in /  1022.9hPa Calm     40% 0.00in /  0mm
21:59 37.1 °F /  2.8 °C 15.0 °F /  -9.4 °C 30.21in /  1022.9hPa Calm   3.0mph /  4.8km/h 40% 0.00in /  0mm
22:04 37.0 °F /  2.8 °C 14.9 °F /  -9.5 °C 30.22in /  1023.2hPa Calm   3.0mph /  4.8km/h 40% 0.00in /  0mm
22:09 37.0 °F /  2.8 °C 14.9 °F /  -9.5 °C 30.22in /  1023.2hPa Calm   4.0mph /  6.4km/h 40% 0.00in /  0mm
22:14 37.1 °F /  2.8 °C 15.6 °F /  -9.1 °C 30.22in /  1023.2hPa Calm   4.0mph /  6.4km/h 41% 0.00in /  0mm
22:19 37.0 °F /  2.8 °C 14.9 °F /  -9.5 °C 30.22in /  1023.2hPa Calm   8.0mph /  12.9km/h 40% 0.00in /  0mm
22:24 37.0 °F /  2.8 °C 15.5 °F /  -9.2 °C 30.22in /  1023.2hPa Calm   8.0mph /  12.9km/h 41% 0.00in /  0mm
22:29 36.9 °F /  2.7 °C 15.4 °F /  -9.2 °C 30.22in /  1023.2hPa Calm   3.0mph /  4.8km/h 41% 0.00in /  0mm
22:34 36.7 °F /  2.6 °C 15.2 °F /  -9.3 °C 30.22in /  1023.2hPa Calm   3.0mph /  4.8km/h 41% 0.00in /  0mm
22:44 37.1 °F /  2.8 °C 16.1 °F /  -8.8 °C 30.23in /  1023.6hPa Calm   12.0mph /  19.3km/h 42% 0.00in /  0mm
22:49 36.9 °F /  2.7 °C 15.9 °F /  -8.9 °C 30.23in /  1023.6hPa Calm   12.0mph /  19.3km/h 42% 0.00in /  0mm
22:54 36.9 °F /  2.7 °C 15.9 °F /  -8.9 °C 30.23in /  1023.6hPa NW 2.0mph /  3.2km/h 9.0mph /  14.5km/h 42% 0.00in /  0mm
22:59 37.1 °F /  2.8 °C 15.6 °F /  -9.1 °C 30.23in /  1023.6hPa NW 1.0mph /  1.6km/h 9.0mph /  14.5km/h 41% 0.00in /  0mm
23:04 37.3 °F /  2.9 °C 15.7 °F /  -9.1 °C 30.23in /  1023.6hPa NW 1.0mph /  1.6km/h 7.0mph /  11.3km/h 41% 0.00in /  0mm
23:09 37.3 °F /  2.9 °C 16.8 °F /  -8.4 °C 30.23in /  1023.6hPa Calm   7.0mph /  11.3km/h 43% 0.00in /  0mm
23:14 36.9 °F /  2.7 °C 16.5 °F /  -8.6 °C 30.23in /  1023.6hPa Calm   4.0mph /  6.4km/h 43% 0.00in /  0mm
23:19 36.6 °F /  2.6 °C 16.7 °F /  -8.5 °C 30.23in /  1023.6hPa Calm   2.0mph /  3.2km/h 44% 0.00in /  0mm
23:24 36.3 °F /  2.4 °C 15.9 °F /  -8.9 °C 30.23in /  1023.6hPa Calm   5.0mph /  8km/h 43% 0.00in /  0mm
23:29 36.2 °F /  2.3 °C 16.4 °F /  -8.7 °C 30.23in /  1023.6hPa NNW 1.0mph /  1.6km/h 5.0mph /  8km/h 44% 0.00in /  0mm
23:34 36.3 °F /  2.4 °C 16.5 °F /  -8.6 °C 30.24in /  1023.9hPa Calm   4.0mph /  6.4km/h 44% 0.00in /  0mm
23:39 36.4 °F /  2.4 °C 16.6 °F /  -8.6 °C 30.24in /  1023.9hPa Calm   4.0mph /  6.4km/h 44% 0.00in /  0mm
23:44 36.2 °F /  2.3 °C 16.4 °F /  -8.7 °C 30.24in /  1023.9hPa Calm   4.0mph /  6.4km/h 44% 0.00in /  0mm
23:49 36.1 °F /  2.3 °C 16.8 °F /  -8.4 °C 30.24in /  1023.9hPa Calm   6.0mph /  9.7km/h 45% 0.00in /  0mm
23:54 36.0 °F /  2.2 °C 16.7 °F /  -8.5 °C 30.24in /  1023.9hPa Calm   6.0mph /  9.7km/h 45% 0.00in /  0mm
23:59 35.7 °F /  2.1 °C 16.9 °F /  -8.4 °C 30.24in /  1023.9hPa Calm   3.0mph /  4.8km/h 46% 0.00in /  0mm
Westford Weather
Compliments of Weather Underground

 
 
Current Radar Loop:

Copyright © WestfordWeather.net 2007-2014. All rights reserved.